createdAt,value
2019-03-22T00:01:15.395Z,9.33
2019-03-22T00:03:47.333Z,10.27
2019-03-22T00:06:19.170Z,11.03
2019-03-22T00:08:51.097Z,11.83
2019-03-22T00:11:23.052Z,11.23
2019-03-22T00:13:55.873Z,11.30
2019-03-22T00:16:27.918Z,8.57
2019-03-22T00:18:59.818Z,8.73
2019-03-22T00:21:34.755Z,8.87
2019-03-22T00:24:06.598Z,9.33
2019-03-22T00:26:38.924Z,9.00
2019-03-22T00:29:10.757Z,9.47
2019-03-22T00:31:47.724Z,9.07
2019-03-22T00:34:20.088Z,8.67
2019-03-22T00:36:51.833Z,9.40
2019-03-22T00:39:23.696Z,10.73
2019-03-22T00:41:55.602Z,9.80
2019-03-22T00:44:27.320Z,10.57
2019-03-22T00:46:59.250Z,9.87
2019-03-22T00:49:31.137Z,9.20
2019-03-22T00:52:02.959Z,10.37
2019-03-22T00:54:35.067Z,11.10
2019-03-22T00:57:06.790Z,10.60
2019-03-22T00:59:38.233Z,9.13
2019-03-22T01:02:09.847Z,9.47
2019-03-22T01:04:41.732Z,8.90
2019-03-22T01:07:13.612Z,8.70
2019-03-22T01:09:45.669Z,9.50
2019-03-22T01:12:17.243Z,8.60
2019-03-22T01:14:49.036Z,8.90
2019-03-22T01:17:20.817Z,8.90
2019-03-22T01:19:52.331Z,10.73
2019-03-22T01:22:24.779Z,10.00
2019-03-22T01:24:56.215Z,9.73
2019-03-22T01:27:39.554Z,10.53
2019-03-22T01:30:01.941Z,8.73
2019-03-22T01:32:34.947Z,9.43
2019-03-22T01:35:06.762Z,11.57
2019-03-22T01:37:38.812Z,9.40
2019-03-22T01:40:11.483Z,8.77
2019-03-22T01:42:43.558Z,8.80
2019-03-22T01:45:16.136Z,8.40
2019-03-22T01:47:48.038Z,8.93
2019-03-22T01:50:19.925Z,9.77
2019-03-22T01:52:52.359Z,9.27
2019-03-22T01:55:24.188Z,9.33
2019-03-22T01:57:55.896Z,10.00
2019-03-22T02:00:28.878Z,10.27
2019-03-22T02:03:00.653Z,8.87
2019-03-22T02:05:32.283Z,10.43
2019-03-22T02:08:04.176Z,10.73
2019-03-22T02:10:35.829Z,10.63
2019-03-22T02:13:07.674Z,9.87
2019-03-22T02:15:40.114Z,9.47
2019-03-22T02:18:11.686Z,9.77
2019-03-22T02:20:43.855Z,8.97
2019-03-22T02:23:15.897Z,8.63
2019-03-22T02:25:47.759Z,8.97
2019-03-22T02:28:20.954Z,9.70
2019-03-22T02:30:53.100Z,10.10
2019-03-22T02:33:25.562Z,9.83
2019-03-22T02:35:57.276Z,10.03
2019-03-22T02:38:29.442Z,9.50
2019-03-22T02:41:01.465Z,9.20
2019-03-22T02:43:33.294Z,8.87
2019-03-22T02:46:05.615Z,8.30
2019-03-22T02:48:37.152Z,9.17
2019-03-22T02:51:09.146Z,9.70
2019-03-22T02:53:40.657Z,9.93
2019-03-22T02:56:12.764Z,9.70
2019-03-22T02:58:44.463Z,8.40
2019-03-22T03:01:16.340Z,9.20
2019-03-22T03:03:47.859Z,9.43
2019-03-22T03:06:19.861Z,8.73
2019-03-22T03:08:51.447Z,8.67
2019-03-22T03:11:23.164Z,9.77
2019-03-22T03:13:54.896Z,9.27
2019-03-22T03:16:26.853Z,9.13
2019-03-22T03:18:58.801Z,8.77
2019-03-22T03:21:30.407Z,9.03
2019-03-22T03:24:02.061Z,9.13
2019-03-22T03:26:34.171Z,8.70
2019-03-22T03:29:06.015Z,8.37
2019-03-22T03:31:37.663Z,8.00
2019-03-22T03:34:09.314Z,8.47
2019-03-22T03:36:41.237Z,8.90
2019-03-22T03:39:13.612Z,8.50
2019-03-22T03:41:45.602Z,8.57
2019-03-22T03:44:18.229Z,9.73
2019-03-22T03:46:50.318Z,8.90
2019-03-22T03:49:22.173Z,9.00
2019-03-22T03:51:54.304Z,9.10
2019-03-22T03:54:25.727Z,8.90
2019-03-22T03:56:57.391Z,8.63
2019-03-22T03:59:29.190Z,9.13
2019-03-22T04:02:01.381Z,8.60
2019-03-22T04:04:33.426Z,10.47
2019-03-22T04:07:05.648Z,8.87
2019-03-22T04:09:37.576Z,9.33
2019-03-22T04:12:10.564Z,8.60
2019-03-22T04:14:42.055Z,9.40
2019-03-22T04:17:14.927Z,9.10
2019-03-22T04:19:47.929Z,9.40
2019-03-22T04:22:19.545Z,9.20
2019-03-22T04:24:51.686Z,9.50
2019-03-22T04:27:23.741Z,8.00
2019-03-22T04:29:55.314Z,9.63
2019-03-22T04:32:28.960Z,9.53
2019-03-22T04:35:01.359Z,7.90
2019-03-22T04:37:33.173Z,9.70
2019-03-22T04:40:07.096Z,9.30
2019-03-22T04:42:39.106Z,9.17
2019-03-22T04:45:11.096Z,10.07
2019-03-22T04:47:45.958Z,8.83
2019-03-22T04:50:17.409Z,10.33
2019-03-22T04:52:50.521Z,9.27
2019-03-22T04:55:23.458Z,9.67
2019-03-22T04:57:59.722Z,9.83
2019-03-22T05:00:32.358Z,9.60
2019-03-22T05:03:05.697Z,9.80
2019-03-22T05:05:37.876Z,10.47
2019-03-22T05:08:09.741Z,9.70
2019-03-22T05:10:45.581Z,9.90
2019-03-22T05:13:20.224Z,9.83
2019-03-22T05:15:52.704Z,9.97
2019-03-22T05:18:25.116Z,10.00
2019-03-22T05:20:58.120Z,10.50
2019-03-22T05:23:31.493Z,10.90
2019-03-22T05:26:05.250Z,10.33
2019-03-22T05:28:38.134Z,9.93
2019-03-22T05:31:30.687Z,10.67
2019-03-22T05:34:02.584Z,10.80
2019-03-22T05:36:34.191Z,8.80
2019-03-22T05:39:08.318Z,10.27
2019-03-22T05:41:40.347Z,10.57
2019-03-22T05:44:12.627Z,9.00
2019-03-22T05:46:44.409Z,10.17
2019-03-22T05:49:16.362Z,9.07
2019-03-22T05:51:48.105Z,10.17
2019-03-22T05:54:21.701Z,9.30
2019-03-22T05:56:53.555Z,9.90
2019-03-22T05:59:25.355Z,10.00
2019-03-22T06:01:57.419Z,10.53
2019-03-22T06:04:29.283Z,10.33
2019-03-22T06:07:01.508Z,11.20
2019-03-22T06:09:33.293Z,10.83
2019-03-22T06:12:05.924Z,11.10
2019-03-22T06:14:37.931Z,11.83
2019-03-22T06:17:11.766Z,11.50
2019-03-22T06:19:44.313Z,12.17
2019-03-22T06:22:20.734Z,10.03
2019-03-22T06:24:50.991Z,10.97
2019-03-22T06:27:22.893Z,9.97
2019-03-22T06:29:54.827Z,10.47
2019-03-22T06:32:27.178Z,11.27
2019-03-22T06:34:59.244Z,10.33
2019-03-22T06:37:30.673Z,10.40
2019-03-22T06:40:02.375Z,11.40
2019-03-22T06:42:35.316Z,10.40
2019-03-22T06:45:07.673Z,9.37
2019-03-22T06:47:39.981Z,10.53
2019-03-22T06:50:11.903Z,11.50
2019-03-22T06:52:48.389Z,10.00
2019-03-22T06:55:22.385Z,12.23
2019-03-22T06:57:54.385Z,8.83
2019-03-22T07:00:28.707Z,9.13
2019-03-22T07:03:01.068Z,8.73
2019-03-22T07:05:32.764Z,8.47
2019-03-22T07:08:04.735Z,8.57
2019-03-22T07:10:36.515Z,8.67
2019-03-22T07:13:08.122Z,8.53
2019-03-22T07:15:48.351Z,9.10
2019-03-22T07:18:21.836Z,8.50
2019-03-22T07:20:55.489Z,9.30
2019-03-22T07:23:30.208Z,9.20
2019-03-22T07:26:05.602Z,10.53
2019-03-22T07:28:37.195Z,11.07
2019-03-22T07:31:09.083Z,10.10
2019-03-22T07:33:42.646Z,10.53
2019-03-22T07:36:16.943Z,10.27
2019-03-22T07:38:59.136Z,9.93
2019-03-22T07:41:32.765Z,9.50
2019-03-22T07:44:07.877Z,9.27
2019-03-22T07:46:39.372Z,9.77
2019-03-22T07:49:10.886Z,8.67
2019-03-22T07:51:43.081Z,9.23
2019-03-22T07:54:20.664Z,9.37
2019-03-22T07:57:03.830Z,10.07
2019-03-22T07:59:31.261Z,10.17
2019-03-22T08:02:04.404Z,9.87
2019-03-22T08:04:37.192Z,9.33
2019-03-22T08:07:09.414Z,9.60
2019-03-22T08:09:42.043Z,10.67
2019-03-22T08:12:13.938Z,9.33
2019-03-22T08:14:46.371Z,9.93
2019-03-22T08:17:19.079Z,9.83
2019-03-22T08:19:57.262Z,10.63
2019-03-22T08:22:30.673Z,11.20
2019-03-22T08:25:03.522Z,11.23
2019-03-22T08:27:35.387Z,11.60
2019-03-22T08:30:07.707Z,10.73
2019-03-22T08:32:39.679Z,10.27
2019-03-22T08:35:11.442Z,10.57
2019-03-22T08:37:52.630Z,10.20
2019-03-22T08:40:17.070Z,9.27
2019-03-22T08:42:49.657Z,10.33
2019-03-22T08:45:22.080Z,9.87
2019-03-22T08:47:57.481Z,10.10
2019-03-22T08:50:50.273Z,10.30
2019-03-22T08:53:54.685Z,9.93
2019-03-22T08:56:18.138Z,10.80
2019-03-22T08:58:50.160Z,10.97
2019-03-22T09:01:21.952Z,11.00
2019-03-22T09:03:56.681Z,12.20
2019-03-22T09:06:32.494Z,11.87
2019-03-22T09:09:07.706Z,11.37
2019-03-22T09:11:41.014Z,11.50
2019-03-22T09:14:17.976Z,11.13
2019-03-22T09:16:50.759Z,11.10
2019-03-22T09:19:22.376Z,10.67
2019-03-22T09:21:54.835Z,11.10
2019-03-22T09:24:38.509Z,11.17
2019-03-22T09:27:04.090Z,11.77
2019-03-22T09:29:35.824Z,10.93
2019-03-22T09:32:10.617Z,12.57
2019-03-22T09:34:44.865Z,11.93
2019-03-22T09:37:17.136Z,12.30
2019-03-22T09:40:10.961Z,12.43
2019-03-22T09:42:45.970Z,12.17
2019-03-22T09:45:24.088Z,12.53
2019-03-22T09:47:58.496Z,12.47
2019-03-22T09:50:30.819Z,12.63
2019-03-22T09:53:06.585Z,11.87
2019-03-22T09:55:38.897Z,13.43
2019-03-22T09:58:10.774Z,11.07
2019-03-22T10:00:48.752Z,12.20
2019-03-22T10:03:16.192Z,12.23
2019-03-22T10:05:51.128Z,11.90
2019-03-22T10:08:23.113Z,13.57
2019-03-22T10:10:56.699Z,13.93
2019-03-22T10:13:32.996Z,12.97
2019-03-22T10:16:06.968Z,13.27
2019-03-22T10:18:41.861Z,14.10
2019-03-22T10:21:22.407Z,13.10
2019-03-22T10:23:56.631Z,12.87
2019-03-22T10:26:36.087Z,14.27
2019-03-22T10:29:10.200Z,12.67
2019-03-22T10:31:44.876Z,12.27
2019-03-22T10:34:31.196Z,10.43
2019-03-22T10:37:18.550Z,10.63
2019-03-22T10:39:54.523Z,10.63
2019-03-22T10:43:05.065Z,10.47
2019-03-22T10:45:55.448Z,9.07
2019-03-22T10:48:31.759Z,9.93
2019-03-22T10:51:10.431Z,9.77
2019-03-22T10:53:48.437Z,10.03
2019-03-22T10:56:25.002Z,33.27
2019-03-22T10:58:58.603Z,9.67
2019-03-22T11:01:46.789Z,8.60
2019-03-22T11:04:14.215Z,9.60
2019-03-22T11:06:48.394Z,9.60
2019-03-22T11:09:32.269Z,9.20
2019-03-22T11:12:12.169Z,9.80
2019-03-22T11:14:39.996Z,7.40
2019-03-22T11:17:15.212Z,7.00
2019-03-22T11:19:52.224Z,6.53
2019-03-22T11:22:23.770Z,7.13
2019-03-22T11:24:59.175Z,7.97
2019-03-22T11:27:32.180Z,7.17
2019-03-22T11:30:04.332Z,8.57
2019-03-22T11:32:39.386Z,7.83
2019-03-22T11:35:11.419Z,7.77
2019-03-22T11:37:43.809Z,7.07
2019-03-22T11:40:21.346Z,7.40
2019-03-22T11:42:54.249Z,7.00
2019-03-22T11:45:26.017Z,6.47
2019-03-22T11:48:00.599Z,7.83
2019-03-22T11:50:33.731Z,8.23
2019-03-22T11:53:05.864Z,7.30
2019-03-22T11:55:39.192Z,7.57
2019-03-22T11:58:12.821Z,7.00
2019-03-22T12:00:45.465Z,7.00
2019-03-22T12:03:16.985Z,7.93
2019-03-22T12:05:51.415Z,7.27
2019-03-22T12:08:23.154Z,7.53
2019-03-22T12:10:55.361Z,6.37
2019-03-22T12:13:34.702Z,8.00
2019-03-22T12:16:06.945Z,7.00
2019-03-22T12:18:38.798Z,7.97
2019-03-22T12:21:11.893Z,8.10
2019-03-22T12:23:44.106Z,8.17
2019-03-22T12:26:20.089Z,7.37
2019-03-22T12:28:54.903Z,6.27
2019-03-22T12:31:27.448Z,7.60
2019-03-22T12:33:59.278Z,8.20
2019-03-22T12:36:31.477Z,8.23
2019-03-22T12:39:10.420Z,8.20
2019-03-22T12:41:42.689Z,9.03
2019-03-22T12:44:16.139Z,8.60
2019-03-22T12:46:52.184Z,8.57
2019-03-22T12:49:25.755Z,7.43
2019-03-22T12:52:04.354Z,8.00
2019-03-22T12:54:38.525Z,8.00
2019-03-22T12:57:10.485Z,7.07
2019-03-22T12:59:41.921Z,8.70
2019-03-22T13:02:14.679Z,8.20
2019-03-22T13:04:49.118Z,8.43
2019-03-22T13:07:54.520Z,8.13
2019-03-22T13:10:49.358Z,7.63
2019-03-22T13:13:28.645Z,6.57
2019-03-22T13:16:00.557Z,7.87
2019-03-22T13:18:34.312Z,8.40
2019-03-22T13:21:10.248Z,8.23
2019-03-22T13:23:50.413Z,7.13
2019-03-22T13:26:26.103Z,8.17
2019-03-22T13:29:00.511Z,8.57
2019-03-22T13:31:31.935Z,9.10
2019-03-22T13:34:04.817Z,7.07
2019-03-22T13:36:36.778Z,8.33
2019-03-22T13:39:10.003Z,7.40
2019-03-22T13:41:41.542Z,7.83
2019-03-22T13:44:16.247Z,7.70
2019-03-22T13:46:49.927Z,8.80
2019-03-22T13:49:21.554Z,9.00
2019-03-22T13:51:53.310Z,8.67
2019-03-22T13:54:26.310Z,9.47
2019-03-22T13:57:01.273Z,8.97
2019-03-22T13:59:33.746Z,10.03
2019-03-22T14:02:07.949Z,10.17
2019-03-22T14:04:42.133Z,10.57
2019-03-22T14:07:16.591Z,10.93
2019-03-22T14:09:48.341Z,9.83
2019-03-22T14:12:23.876Z,11.03
2019-03-22T14:14:56.332Z,10.67
2019-03-22T14:17:32.371Z,10.83
2019-03-22T14:20:11.342Z,10.73
2019-03-22T14:22:43.256Z,11.30
2019-03-22T14:25:15.244Z,11.17
2019-03-22T14:27:51.670Z,12.33
2019-03-22T14:30:26.857Z,10.93
2019-03-22T14:33:00.908Z,11.63
2019-03-22T14:35:33.946Z,12.13
2019-03-22T14:38:06.505Z,12.40
2019-03-22T14:40:38.841Z,12.07
2019-03-22T14:43:12.246Z,10.97
2019-03-22T14:45:44.331Z,12.23
2019-03-22T14:48:16.971Z,11.73
2019-03-22T14:50:48.489Z,10.80
2019-03-22T14:53:21.331Z,13.67
2019-03-22T14:55:53.004Z,12.17
2019-03-22T14:58:24.733Z,13.30
2019-03-22T15:00:56.409Z,13.20
2019-03-22T15:03:31.402Z,13.37
2019-03-22T15:06:03.288Z,13.60
2019-03-22T15:08:40.077Z,14.30
2019-03-22T15:11:13.946Z,14.10
2019-03-22T15:14:06.341Z,15.73
2019-03-22T15:17:00.032Z,14.43
2019-03-22T15:19:50.340Z,14.30
2019-03-22T15:22:43.833Z,15.50
2019-03-22T15:25:37.484Z,14.17
2019-03-22T15:28:28.047Z,14.97
2019-03-22T15:31:27.691Z,14.13
2019-03-22T15:34:08.523Z,14.97
2019-03-22T15:37:06.460Z,15.33
2019-03-22T15:39:57.768Z,14.27
2019-03-22T15:42:33.458Z,14.03
2019-03-22T15:45:12.354Z,15.13
2019-03-22T15:47:45.069Z,14.50
2019-03-22T15:50:21.707Z,14.40
2019-03-22T15:52:55.837Z,15.03
2019-03-22T15:55:29.501Z,13.73
2019-03-22T15:58:01.207Z,13.60
2019-03-22T16:00:43.208Z,14.70
2019-03-22T16:03:16.158Z,13.47
2019-03-22T16:05:50.351Z,14.33
2019-03-22T16:08:22.958Z,14.90
2019-03-22T16:10:56.293Z,13.77
2019-03-22T16:13:28.294Z,14.80
2019-03-22T16:16:03.238Z,13.40
2019-03-22T16:18:37.486Z,13.50
2019-03-22T16:21:13.772Z,14.20
2019-03-22T16:23:51.294Z,13.53
2019-03-22T16:26:25.807Z,14.63
2019-03-22T16:29:02.458Z,15.20
2019-03-22T16:31:37.645Z,15.13
2019-03-22T16:34:11.688Z,13.63
2019-03-22T16:36:46.267Z,13.53
2019-03-22T16:39:28.699Z,12.43
2019-03-22T16:42:02.704Z,13.27
2019-03-22T16:44:39.187Z,14.13
2019-03-22T16:47:15.172Z,14.50
2019-03-22T16:49:47.666Z,16.77
2019-03-22T16:52:23.693Z,15.87
2019-03-22T16:54:59.567Z,16.70
2019-03-22T16:57:39.369Z,16.27
2019-03-22T17:00:24.519Z,16.67
2019-03-22T17:02:56.427Z,18.50
2019-03-22T17:05:33.055Z,19.07
2019-03-22T17:08:10.755Z,19.03
2019-03-22T17:10:48.844Z,17.17
2019-03-22T17:13:32.782Z,18.67
2019-03-22T17:16:12.109Z,16.73
2019-03-22T17:18:47.669Z,18.83
2019-03-22T17:21:31.120Z,19.47
2019-03-22T17:24:09.174Z,17.73
2019-03-22T17:26:52.093Z,20.27
2019-03-22T17:29:32.675Z,19.37
2019-03-22T17:32:10.681Z,19.00
2019-03-22T17:34:49.013Z,21.73
2019-03-22T17:37:24.722Z,19.03
2019-03-22T17:40:22.635Z,19.50
2019-03-22T17:43:20.333Z,20.63
2019-03-22T17:45:56.961Z,21.00
2019-03-22T17:48:30.635Z,18.40
2019-03-22T17:51:04.175Z,19.40
2019-03-22T17:53:43.887Z,21.23
2019-03-22T17:58:57.080Z,19.20
2019-03-22T18:01:28.724Z,18.10
2019-03-22T18:04:00.203Z,17.63
2019-03-22T18:06:34.940Z,18.70
2019-03-22T18:09:10.964Z,18.87
2019-03-22T18:11:46.422Z,20.10
2019-03-22T18:14:19.627Z,20.73
2019-03-22T18:16:54.225Z,20.93
2019-03-22T18:19:31.496Z,23.13
2019-03-22T18:22:07.344Z,23.30
2019-03-22T18:24:40.078Z,18.67
2019-03-22T18:27:12.549Z,16.07
2019-03-22T18:29:44.335Z,14.00
2019-03-22T18:32:21.972Z,16.00
2019-03-22T18:35:02.231Z,15.70
2019-03-22T18:37:40.296Z,15.40
2019-03-22T18:40:15.238Z,16.03
2019-03-22T18:42:47.603Z,15.87
2019-03-22T18:45:24.104Z,15.20
2019-03-22T18:48:01.332Z,16.63
2019-03-22T18:50:34.352Z,16.47
2019-03-22T18:53:08.092Z,17.33
2019-03-22T18:55:42.502Z,17.90
2019-03-22T18:58:18.251Z,20.53
2019-03-22T19:00:52.544Z,18.57
2019-03-22T19:03:27.932Z,18.17
2019-03-22T19:06:02.491Z,16.37
2019-03-22T19:08:34.394Z,17.57
2019-03-22T19:11:06.664Z,18.17
2019-03-22T19:13:43.869Z,18.27
2019-03-22T19:16:19.652Z,17.80
2019-03-22T19:18:54.854Z,17.37
2019-03-22T19:21:30.040Z,16.33
2019-03-22T19:24:09.027Z,18.53
2019-03-22T19:26:41.943Z,17.43
2019-03-22T19:29:34.593Z,14.90
2019-03-22T19:32:13.277Z,19.10
2019-03-22T19:34:54.660Z,16.33
2019-03-22T19:37:29.872Z,17.50
2019-03-22T19:40:09.215Z,17.07
2019-03-22T19:42:45.059Z,16.53
2019-03-22T19:45:25.968Z,17.70
2019-03-22T19:47:59.971Z,17.30
2019-03-22T19:50:32.755Z,16.90
2019-03-22T19:53:08.116Z,15.90
2019-03-22T19:55:43.501Z,14.30
2019-03-22T19:58:21.125Z,15.90
2019-03-22T20:00:57.158Z,15.30
2019-03-22T20:03:41.227Z,15.33
2019-03-22T20:06:24.972Z,13.30
2019-03-22T20:09:17.224Z,15.03
2019-03-22T20:12:07.673Z,13.87
2019-03-22T20:15:21.130Z,12.53
2019-03-22T20:17:57.661Z,14.17
2019-03-22T20:20:45.592Z,14.53
2019-03-22T20:23:33.143Z,13.77
2019-03-22T20:26:07.606Z,13.97
2019-03-22T20:28:46.456Z,13.47
2019-03-22T20:31:25.936Z,15.73
2019-03-22T20:34:04.340Z,15.27
2019-03-22T20:36:39.681Z,14.60
2019-03-22T20:39:11.717Z,14.80
2019-03-22T20:41:51.847Z,15.87
2019-03-22T20:44:37.996Z,15.33
2019-03-22T20:47:16.379Z,14.40
2019-03-22T20:49:56.091Z,14.93
2019-03-22T20:52:30.362Z,15.80
2019-03-22T20:55:07.986Z,15.50
2019-03-22T20:57:40.097Z,15.23
2019-03-22T21:00:12.902Z,15.40
2019-03-22T21:02:51.509Z,15.20
2019-03-22T21:05:29.230Z,15.97
2019-03-22T21:08:13.392Z,14.77
2019-03-22T21:10:47.584Z,15.10
2019-03-22T21:13:19.220Z,15.33
2019-03-22T21:15:53.138Z,15.37
2019-03-22T21:18:27.906Z,14.40
2019-03-22T21:21:01.682Z,15.50
2019-03-22T21:23:36.508Z,15.40
2019-03-22T21:26:07.816Z,13.73
2019-03-22T21:28:50.088Z,15.23
2019-03-22T21:31:22.955Z,14.53
2019-03-22T21:33:55.896Z,13.57
2019-03-22T21:36:32.087Z,16.00
2019-03-22T21:39:07.315Z,16.33
2019-03-22T21:41:44.552Z,16.17
2019-03-22T21:44:16.931Z,14.10
2019-03-22T21:46:48.905Z,15.03
2019-03-22T21:49:30.278Z,14.97
2019-03-22T21:52:04.091Z,14.93
2019-03-22T21:54:39.246Z,15.30
2019-03-22T21:57:18.509Z,15.57
2019-03-22T21:59:51.594Z,15.43
2019-03-22T22:02:23.843Z,14.10
2019-03-22T22:05:01.242Z,15.77
2019-03-22T22:07:33.715Z,14.80
2019-03-22T22:10:10.200Z,14.67
2019-03-22T22:12:42.796Z,15.13
2019-03-22T22:15:19.357Z,14.90
2019-03-22T22:18:09.080Z,13.60
2019-03-22T22:20:48.423Z,15.00
2019-03-22T22:23:21.944Z,15.30
2019-03-22T22:25:54.702Z,15.07
2019-03-22T22:28:27.087Z,14.07
2019-03-22T22:30:59.142Z,16.30
2019-03-22T22:33:31.423Z,15.57
2019-03-22T22:36:06.193Z,15.00
2019-03-22T22:38:40.298Z,15.73
2019-03-22T22:41:14.296Z,14.57
2019-03-22T22:43:48.723Z,15.50
2019-03-22T22:46:21.273Z,14.23
2019-03-22T22:48:56.975Z,15.27
2019-03-22T22:51:32.411Z,14.10
2019-03-22T22:54:04.902Z,14.87
2019-03-22T22:56:39.918Z,14.90
2019-03-22T22:59:12.448Z,14.40
2019-03-22T23:01:46.851Z,15.90
2019-03-22T23:04:18.469Z,15.80
2019-03-22T23:06:54.212Z,14.80
2019-03-22T23:09:26.143Z,15.57
2019-03-22T23:12:02.264Z,14.97
2019-03-22T23:14:38.475Z,15.30
2019-03-22T23:17:10.201Z,13.53
2019-03-22T23:19:44.092Z,13.10
2019-03-22T23:22:16.003Z,14.67
2019-03-22T23:24:48.089Z,14.20
2019-03-22T23:27:20.534Z,13.73
2019-03-22T23:29:52.508Z,14.53
2019-03-22T23:32:24.655Z,13.43
2019-03-22T23:35:02.681Z,12.50
2019-03-22T23:37:34.850Z,14.87
2019-03-22T23:40:07.481Z,13.60
2019-03-22T23:42:39.178Z,12.30
2019-03-22T23:45:13.707Z,12.60
2019-03-22T23:47:45.602Z,13.47
2019-03-22T23:50:18.474Z,14.80
2019-03-22T23:52:52.067Z,14.37
2019-03-22T23:55:26.677Z,15.10
2019-03-22T23:57:59.419Z,13.93
